Time;durP1;ratioP1;P1;durP2;ratioP2;P2;SDS_P1;SDS_P2;PMS_P1;PMS_P2;Temp;Humidity;BMP_temperature;BMP_pressure;BME280_temperature;BME280_humidity;BME280_pressure;Samples;Min_cycle;Max_cycle;Signal;HPM_P1;HPM_P2
2022/04/05 05:02:49;;;;;;;9.73;6.43;;;5.40;99.90;;;;;;6168713;22;20040;-79
2022/04/05 05:05:27;;;;;;;11.82;6.60;;;5.30;99.90;;;;;;6142057;23;20008;-80
2022/04/05 05:07:56;;;;;;;10.85;7.10;;;5.30;99.90;;;;;;6193090;23;20215;-78
2022/04/05 05:10:25;;;;;;;10.88;6.70;;;5.30;99.90;;;;;;6216923;23;20313;-79
2022/04/05 05:12:50;;;;;;;9.43;6.25;;;5.30;99.90;;;;;;6193484;23;20294;-78
2022/04/05 05:15:21;;;;;;;13.45;7.10;;;5.30;99.90;;;;;;6192278;23;20041;-78
2022/04/05 05:17:52;;;;;;;12.07;7.43;;;5.30;99.90;;;;;;6192499;23;20001;-81
2022/04/05 05:21:00;;;;;;;12.80;7.25;;;5.30;99.90;;;;;;6193322;23;20075;-79
2022/04/05 05:23:29;;;;;;;11.20;7.15;;;5.30;99.90;;;;;;6073863;23;20022;-79
2022/04/05 05:29:31;;;;;;;12.10;7.25;;;5.40;99.90;;;;;;6194930;23;20009;-80
2022/04/05 05:38:43;;;;;;;9.60;6.70;;;5.30;99.90;;;;;;6195139;23;20060;-79
2022/04/05 05:41:09;;;;;;;10.50;6.35;;;5.40;99.90;;;;;;6168018;23;20001;-78
2022/04/05 05:43:38;;;;;;;11.10;7.15;;;5.40;99.90;;;;;;6192067;23;20298;-78
2022/04/05 05:46:26;;;;;;;11.13;7.35;;;5.40;99.90;;;;;;6190698;23;20307;-79
2022/04/05 05:48:52;;;;;;;11.90;7.60;;;5.50;99.90;;;;;;6142901;23;20116;-78
2022/04/05 05:51:18;;;;;;;11.85;7.45;;;5.50;99.90;;;;;;6191670;23;20089;-78
2022/04/05 05:53:44;;;;;;;10.77;6.95;;;5.50;99.90;;;;;;6166174;23;20001;-79
2022/04/05 05:56:09;;;;;;;11.93;7.28;;;5.50;99.90;;;;;;6166407;23;20008;-78
2022/04/05 05:58:35;;;;;;;10.63;7.40;;;5.50;99.90;;;;;;6192188;23;20005;-79
2022/04/05 06:01:01;;;;;;;9.95;6.50;;;5.50;99.90;;;;;;6192134;23;20270;-79
2022/04/05 06:03:28;;;;;;;11.70;7.20;;;5.50;99.90;;;;;;6216224;23;20320;-77
2022/04/05 06:05:54;;;;;;;9.23;6.07;;;5.50;99.90;;;;;;6247194;23;20005;-78
2022/04/05 06:08:20;;;;;;;12.00;7.10;;;5.60;99.90;;;;;;6223137;23;20063;-77
2022/04/05 06:10:46;;;;;;;11.00;7.43;;;5.50;99.90;;;;;;6247263;23;20031;-78
2022/04/05 06:13:12;;;;;;;10.60;6.22;;;5.50;99.90;;;;;;6246827;23;20005;-77
2022/04/05 06:15:38;;;;;;;10.32;6.68;;;5.50;99.90;;;;;;6221268;22;20306;-79
2022/04/05 06:18:08;;;;;;;11.60;7.28;;;5.50;99.90;;;;;;6197051;23;20055;-78
2022/04/05 06:20:34;;;;;;;12.13;6.72;;;5.40;99.90;;;;;;6247761;23;20047;-79
2022/04/05 06:23:03;;;;;;;11.77;7.18;;;5.30;99.90;;;;;;6247952;23;20069;-78
2022/04/05 06:25:38;;;;;;;;;;;5.30;99.90;;;;;;6250398;23;20029;-78
2022/04/05 06:28:18;;;;;;;12.70;7.78;;;5.30;99.90;;;;;;6200009;23;19914;-77
2022/04/05 06:30:56;;;;;;;12.63;6.93;;;5.20;99.90;;;;;;6227354;22;20035;-79
2022/04/05 06:33:22;;;;;;;12.88;7.28;;;5.30;99.90;;;;;;6201537;23;20034;-77
2022/04/05 06:36:00;;;;;;;12.18;7.15;;;5.30;99.90;;;;;;6227351;23;20039;-77
2022/04/05 06:41:58;;;;;;;12.95;7.43;;;5.30;99.90;;;;;;6200265;23;20008;-78
2022/04/05 06:44:26;;;;;;;9.18;6.40;;;5.20;99.90;;;;;;6199672;23;20004;-79
2022/04/05 06:46:52;;;;;;;9.27;6.57;;;5.30;99.90;;;;;;6197955;23;20302;-78
2022/04/05 06:49:18;;;;;;;11.32;6.55;;;5.30;99.90;;;;;;6248915;23;20008;-79
2022/04/05 06:51:45;;;;;;;13.57;6.82;;;5.30;99.90;;;;;;6200057;23;20004;-78
2022/04/05 06:54:11;;;;;;;9.48;6.35;;;5.40;99.90;;;;;;6198407;23;20004;-79
2022/04/05 06:56:37;;;;;;;10.98;6.95;;;5.40;99.90;;;;;;6199804;23;20185;-78
2022/04/05 06:59:04;;;;;;;12.35;6.68;;;5.40;99.90;;;;;;6199832;23;20297;-79
2022/04/05 07:01:32;;;;;;;13.45;7.70;;;5.50;99.90;;;;;;6247943;22;20023;-79
2022/04/05 07:04:00;;;;;;;11.73;7.10;;;5.30;99.90;;;;;;6199460;23;20015;-78
2022/04/05 07:06:44;;;;;;;14.85;7.30;;;5.30;99.90;;;;;;6222738;23;20012;-79
2022/04/05 07:09:10;;;;;;;12.07;7.40;;;5.40;99.90;;;;;;6226187;23;20190;-79
2022/04/05 07:11:40;;;;;;;10.23;7.00;;;5.40;99.90;;;;;;6250837;23;20007;-78
2022/04/05 07:14:06;;;;;;;12.98;6.95;;;5.50;99.90;;;;;;6199828;23;20024;-79
2022/04/05 07:16:33;;;;;;;10.63;6.38;;;5.50;99.90;;;;;;6197861;23;20020;-78
2022/04/05 07:18:59;;;;;;;10.25;7.30;;;5.60;99.90;;;;;;6250275;23;20308;-78
2022/04/05 07:21:26;;;;;;;10.45;6.63;;;5.60;99.90;;;;;;6249664;23;20005;-77
2022/04/05 07:23:52;;;;;;;9.80;5.68;;;5.70;99.90;;;;;;6200315;23;19997;-78
2022/04/05 07:26:21;;;;;;;9.57;5.78;;;5.80;99.90;;;;;;6249576;23;20004;-79
2022/04/05 07:28:48;;;;;;;9.45;6.10;;;5.80;99.90;;;;;;6249827;23;20068;-79
2022/04/05 07:31:14;;;;;;;8.52;5.72;;;5.90;99.90;;;;;;6248781;22;20008;-76
2022/04/05 07:33:40;;;;;;;8.75;6.05;;;5.90;99.90;;;;;;6249576;23;20068;-79
2022/04/05 07:36:06;;;;;;;10.10;5.95;;;5.90;99.90;;;;;;6224891;23;20009;-79
2022/04/05 07:38:32;;;;;;;10.18;5.70;;;6.00;99.90;;;;;;6198080;23;20013;-78
2022/04/05 07:41:38;;;;;;;9.45;5.65;;;6.00;99.90;;;;;;6248621;23;20251;-78
2022/04/05 07:51:53;;;;;;;10.68;5.95;;;6.00;99.90;;;;;;6162918;23;20012;-75
2022/04/05 08:06:39;;;;;;;;;;;;;;;;;;;;;
2022/04/05 08:10:30;;;;;;;7.88;5.78;;;6.50;99.90;;;;;;6073872;23;20026;-77
2022/04/05 08:13:47;;;;;;;9.70;6.60;;;6.70;99.90;;;;;;6050780;23;20003;-78
2022/04/05 08:21:25;;;;;;;9.95;4.97;;;7.00;99.90;;;;;;6013490;23;20045;-78
2022/04/05 08:23:55;;;;;;;7.88;4.82;;;7.00;99.90;;;;;;5933816;24;20334;-78
2022/04/05 08:26:21;;;;;;;9.20;5.45;;;7.00;99.90;;;;;;5983643;23;20012;-78
2022/04/05 08:28:47;;;;;;;11.35;5.30;;;7.10;99.90;;;;;;5995243;23;20059;-78
2022/04/05 08:31:13;;;;;;;9.00;5.53;;;7.20;99.90;;;;;;5980737;23;20022;-78
2022/04/05 08:33:40;;;;;;;7.88;5.10;;;7.10;99.90;;;;;;6018030;23;20010;-78
2022/04/05 08:40:22;;;;;;;8.00;5.22;;;7.20;99.90;;;;;;5949892;24;20014;-79
2022/04/05 08:43:09;;;;;;;8.95;5.70;;;7.30;99.90;;;;;;6026685;23;20010;-79
2022/04/05 08:49:32;;;;;;;8.35;4.97;;;7.50;99.90;;;;;;6100967;23;20239;-79
2022/04/05 08:59:02;;;;;;;7.53;4.60;;;7.80;99.90;;;;;;6114654;23;20010;-77
2022/04/05 09:01:32;;;;;;;7.80;5.18;;;7.80;99.90;;;;;;6196668;23;20019;-76
2022/04/05 09:07:23;;;;;;;7.43;4.75;;;8.10;99.90;;;;;;6198473;23;20012;-78
2022/04/05 09:10:39;;;;;;;8.52;4.68;;;8.30;99.90;;;;;;6224258;23;20044;-78
2022/04/05 09:13:12;;;;;;;8.93;4.32;;;8.40;99.90;;;;;;6170511;23;20012;-78
2022/04/05 09:15:47;;;;;;;6.57;4.30;;;8.50;99.90;;;;;;6196566;23;20218;-77
2022/04/05 09:18:47;;;;;;;7.72;4.45;;;8.60;99.90;;;;;;6198737;23;20013;-78
2022/04/05 09:21:16;;;;;;;9.10;4.25;;;8.60;99.90;;;;;;6198462;23;20000;-79
2022/04/05 09:28:26;;;;;;;6.32;4.20;;;8.80;99.50;;;;;;6161884;23;20013;-79
2022/04/05 09:31:22;;;;;;;7.00;4.03;;;8.90;99.60;;;;;;6161508;23;20163;-78
2022/04/05 09:42:08;;;;;;;6.60;3.92;;;9.40;99.00;;;;;;6163101;23;20113;-78
2022/04/05 09:44:42;;;;;;;5.75;3.55;;;9.50;98.20;;;;;;6138448;23;20154;-77
2022/04/05 09:50:34;;;;;;;5.20;3.53;;;9.50;99.00;;;;;;6137019;23;20079;-78
2022/04/05 09:53:23;;;;;;;7.95;3.90;;;9.40;99.30;;;;;;6135624;23;20052;-77
2022/04/05 09:56:10;;;;;;;7.72;3.47;;;9.40;99.90;;;;;;6142221;23;20036;-78
2022/04/05 09:58:42;;;;;;;6.15;3.60;;;9.30;99.70;;;;;;6138635;23;20009;-77
2022/04/05 10:01:32;;;;;;;7.93;3.47;;;9.30;99.90;;;;;;6162750;23;20419;-78
2022/04/05 10:31:01;;;;;;;6.97;4.57;;;8.70;99.90;;;;;;6148085;23;20028;-77
2022/04/05 10:53:19;;;;;;;7.32;4.07;;;8.80;99.90;;;;;;5867151;24;20059;-78
2022/04/05 10:56:26;;;;;;;;;;;;;;;;;;;;;
2022/04/05 10:59:16;;;;;;;5.55;3.72;;;8.80;99.90;;;;;;5981443;23;20124;-76
2022/04/05 11:01:52;;;;;;;6.15;3.70;;;9.00;99.90;;;;;;6009078;23;20068;-78
2022/04/05 11:05:19;;;;;;;;;;;;;;;;;;;;;
2022/04/05 12:10:23;;;;;;;4.25;2.60;;;10.50;99.90;;;;;;6190551;23;20023;-79
2022/04/05 13:27:35;;;;;;;4.47;2.20;;;11.30;97.50;;;;;;6107965;23;20025;-80
2022/04/05 15:26:52;;;;;;;4.50;2.50;;;11.70;96.80;;;;;;6190632;22;20283;-80
2022/04/05 15:29:44;;;;;;;3.63;2.28;;;11.70;96.70;;;;;;6109580;23;20041;-80
2022/04/05 15:39:40;;;;;;;4.40;2.30;;;11.50;97.20;;;;;;6073864;23;20022;-79
2022/04/05 15:45:49;;;;;;;3.92;2.28;;;11.20;98.30;;;;;;6074147;23;20017;-82
2022/04/05 15:48:20;;;;;;;4.47;2.20;;;11.10;98.70;;;;;;6051134;23;20006;-80
2022/04/05 15:51:16;;;;;;;4.95;2.72;;;11.10;98.20;;;;;;6183732;23;20012;-79
2022/04/05 15:53:43;;;;;;;6.35;2.50;;;11.10;98.20;;;;;;6168799;23;20059;-79
2022/04/05 15:59:52;;;;;;;3.58;1.95;;;11.10;98.00;;;;;;6194283;23;20012;-80
2022/04/05 16:02:55;;;;;;;4.15;2.00;;;11.10;98.70;;;;;;6195780;23;20076;-81
2022/04/05 16:05:58;;;;;;;5.68;2.45;;;11.10;99.00;;;;;;6193621;23;20012;-80
2022/04/05 16:12:57;;;;;;;7.15;3.00;;;11.10;99.40;;;;;;6193256;23;20391;-81
2022/04/05 16:16:14;;;;;;;4.70;2.15;;;11.10;99.90;;;;;;6205520;22;20015;-80
2022/04/05 16:18:59;;;;;;;5.53;2.08;;;11.10;99.90;;;;;;6223677;23;19996;-81
2022/04/05 16:21:25;;;;;;;3.50;2.10;;;11.10;99.90;;;;;;6247020;23;20294;-81
2022/04/05 16:23:52;;;;;;;3.83;1.80;;;11.10;99.90;;;;;;6198478;23;20060;-79
2022/04/05 16:26:20;;;;;;;4.72;2.30;;;11.10;99.90;;;;;;6198373;23;20008;-80
2022/04/05 16:28:49;;;;;;;4.82;2.05;;;11.10;99.90;;;;;;6248109;22;20024;-81
2022/04/05 16:31:16;;;;;;;5.93;1.92;;;11.20;99.90;;;;;;6227690;22;20013;-80
2022/04/05 16:34:17;;;;;;;4.63;2.05;;;11.20;99.50;;;;;;6104797;23;20016;-80
2022/04/05 16:36:43;;;;;;;3.72;2.10;;;11.30;99.30;;;;;;6104616;23;20002;-81
2022/04/05 16:39:09;;;;;;;4.05;2.40;;;11.30;99.50;;;;;;6105029;23;20002;-82
2022/04/05 16:41:36;;;;;;;3.40;1.85;;;11.20;99.00;;;;;;6105879;23;20002;-81
2022/04/05 16:44:04;;;;;;;3.67;2.00;;;11.10;99.30;;;;;;6105593;23;20312;-82
2022/04/05 16:46:31;;;;;;;3.95;2.20;;;11.10;99.30;;;;;;6105045;23;20014;-81
2022/04/05 16:49:01;;;;;;;3.38;2.17;;;11.10;99.50;;;;;;6080608;23;20082;-81
2022/04/05 16:51:29;;;;;;;4.85;2.25;;;11.10;99.50;;;;;;6104788;23;20018;-80
2022/04/05 16:53:55;;;;;;;4.03;2.25;;;11.00;99.40;;;;;;6081774;23;20003;-83
2022/04/05 16:56:45;;;;;;;5.25;2.60;;;10.90;99.40;;;;;;6106505;23;20006;-80
2022/04/05 16:59:12;;;;;;;5.72;2.53;;;10.90;99.60;;;;;;6080024;23;20220;-82
2022/04/05 17:01:50;;;;;;;5.15;2.70;;;10.80;99.80;;;;;;6080242;23;20018;-81
2022/04/05 17:04:22;;;;;;;3.63;2.27;;;10.80;99.80;;;;;;6104299;23;20030;-80
2022/04/05 17:07:23;;;;;;;6.05;2.80;;;10.80;99.90;;;;;;6104481;23;20021;-79
2022/04/05 17:13:10;;;;;;;13.30;9.20;;;10.80;99.90;;;;;;6227594;23;20389;-80
2022/04/05 17:15:36;;;;;;;4.82;2.95;;;10.80;99.70;;;;;;6249921;22;20019;-82
2022/04/05 17:18:02;;;;;;;4.72;2.70;;;10.80;99.50;;;;;;6250370;23;20008;-82
2022/04/05 17:24:03;;;;;;;5.18;2.80;;;10.80;99.70;;;;;;6228370;23;20047;-79
2022/04/05 17:30:18;;;;;;;4.82;2.70;;;10.80;99.30;;;;;;6226393;22;20060;-80
2022/04/05 17:32:45;;;;;;;5.03;2.78;;;10.80;99.40;;;;;;6228831;23;20156;-80
2022/04/05 17:38:13;;;;;;;6.32;2.80;;;10.80;99.00;;;;;;6203469;23;20215;-80
2022/04/05 17:40:39;;;;;;;5.22;2.78;;;10.80;99.70;;;;;;6205629;23;20072;-79
2022/04/05 17:43:08;;;;;;;4.50;2.90;;;10.70;99.90;;;;;;6160817;23;20013;-81
2022/04/05 17:45:34;;;;;;;6.63;3.03;;;10.70;99.60;;;;;;6166492;23;20027;-79
2022/04/05 17:51:50;;;;;;;4.93;3.00;;;10.70;99.80;;;;;;6160667;23;20017;-78
2022/04/05 17:54:16;;;;;;;5.30;3.05;;;10.60;99.70;;;;;;6140699;23;20005;-80
2022/04/05 17:56:42;;;;;;;5.95;2.72;;;10.60;99.30;;;;;;6190359;23;20331;-80
2022/04/05 17:59:10;;;;;;;4.70;2.97;;;10.60;99.30;;;;;;6140626;23;20004;-79
2022/04/05 18:01:38;;;;;;;5.38;2.75;;;10.60;99.50;;;;;;6139911;23;20010;-79
2022/04/05 18:04:05;;;;;;;4.80;2.97;;;10.60;99.10;;;;;;6140277;23;19990;-80
2022/04/05 18:06:31;;;;;;;5.40;2.70;;;10.60;99.10;;;;;;6164351;23;20016;-79
2022/04/05 18:09:00;;;;;;;5.53;2.72;;;10.60;99.10;;;;;;6163301;23;20022;-79
2022/04/05 18:11:35;;;;;;;4.03;2.55;;;10.60;99.10;;;;;;6164472;23;20065;-80
2022/04/05 18:14:05;;;;;;;4.75;2.65;;;10.70;99.20;;;;;;6138685;23;20212;-80
2022/04/05 18:16:32;;;;;;;4.78;2.70;;;10.70;99.20;;;;;;6114469;23;20018;-79
2022/04/05 18:18:59;;;;;;;5.95;3.00;;;10.70;99.20;;;;;;6139348;23;20001;-80
2022/04/05 18:21:35;;;;;;;6.53;2.47;;;10.60;99.30;;;;;;6146799;23;20168;-78
2022/04/05 18:24:04;;;;;;;4.95;2.60;;;10.70;99.40;;;;;;6170400;23;20024;-79
2022/04/05 18:26:57;;;;;;;3.80;2.58;;;10.70;99.50;;;;;;6219879;23;20001;-78
2022/04/05 18:29:23;;;;;;;3.67;2.20;;;10.70;99.50;;;;;;6192071;23;20005;-77
2022/04/05 18:31:48;;;;;;;5.72;2.40;;;10.70;99.60;;;;;;6164830;23;20027;-80
2022/04/05 18:34:14;;;;;;;5.88;2.92;;;10.70;99.60;;;;;;6166830;23;19998;-79
2022/04/05 18:36:40;;;;;;;4.82;2.70;;;10.60;99.70;;;;;;6195736;23;20274;-79
2022/04/05 18:39:07;;;;;;;5.30;2.70;;;10.70;99.80;;;;;;6220290;23;20033;-79
2022/04/05 18:41:52;;;;;;;6.45;3.03;;;10.70;99.90;;;;;;6221357;23;20009;-79
2022/04/05 18:44:43;;;;;;;4.93;3.15;;;10.70;99.70;;;;;;6139608;23;20065;-78
2022/04/05 18:50:54;;;;;;;4.82;3.10;;;10.70;99.60;;;;;;6196475;23;20321;-78
2022/04/05 18:53:22;;;;;;;4.68;3.15;;;10.70;99.50;;;;;;6171143;23;20005;-78
2022/04/05 18:56:13;;;;;;;;;;;10.70;99.30;;;;;;6170789;23;20016;-78
2022/04/05 18:58:42;;;;;;;6.57;3.30;;;10.70;99.20;;;;;;6220214;23;19919;-81
2022/04/05 19:01:11;;;;;;;6.00;3.35;;;10.70;99.30;;;;;;6170913;23;20009;-78
2022/04/05 19:04:09;;;;;;;6.80;3.50;;;10.70;99.40;;;;;;6199251;23;20239;-80
2022/04/05 19:06:38;;;;;;;6.13;3.60;;;10.60;99.30;;;;;;6196048;23;20283;-78
2022/04/05 19:09:46;;;;;;;6.05;3.28;;;10.70;99.30;;;;;;6170290;23;20091;-78
2022/04/05 19:12:11;;;;;;;5.72;3.70;;;10.70;99.50;;;;;;6105740;23;20154;-78
2022/04/05 19:14:37;;;;;;;5.55;3.58;;;10.60;99.40;;;;;;6080754;23;20252;-80
2022/04/05 19:17:15;;;;;;;7.47;3.58;;;10.60;99.20;;;;;;6102929;23;20507;-81
2022/04/05 19:19:41;;;;;;;6.25;3.53;;;10.60;99.40;;;;;;6080100;23;20351;-80
2022/04/05 19:22:22;;;;;;;5.88;4.07;;;10.50;99.40;;;;;;6080671;23;20177;-78
2022/04/05 19:24:57;;;;;;;6.20;3.90;;;10.60;99.40;;;;;;6080907;23;20051;-79
2022/04/05 19:27:40;;;;;;;7.70;4.00;;;10.60;99.20;;;;;;6080387;23;20320;-80
2022/04/05 19:30:32;;;;;;;8.48;3.95;;;10.60;99.30;;;;;;6074881;23;20029;-78
2022/04/05 19:32:58;;;;;;;5.88;3.83;;;10.60;99.40;;;;;;6051119;23;20015;-80
2022/04/05 19:35:24;;;;;;;6.35;3.70;;;10.60;99.50;;;;;;6048023;23;20357;-79
2022/04/05 19:37:50;;;;;;;6.70;3.95;;;10.60;99.50;;;;;;6047379;23;20008;-80
2022/04/05 19:40:16;;;;;;;6.70;4.10;;;10.60;99.60;;;;;;6047377;23;20079;-78
2022/04/05 20:03:30;;;;;;;8.20;3.95;;;10.50;99.70;;;;;;6140466;23;20021;-82
2022/04/05 20:07:11;;;;;;;;;;;;;;;;;;;;;
2022/04/05 20:34:08;;;;;;;7.07;3.90;;;10.50;99.80;;;;;;6164310;23;20029;-81
2022/04/05 20:36:43;;;;;;;7.15;4.45;;;10.50;99.70;;;;;;6115771;23;20223;-81
2022/04/05 20:39:09;;;;;;;10.50;4.25;;;10.50;99.90;;;;;;6139111;23;20199;-80
2022/04/05 20:41:35;;;;;;;7.88;4.05;;;10.40;99.90;;;;;;6163865;23;20005;-79
2022/04/05 20:44:01;;;;;;;5.13;3.88;;;10.40;99.90;;;;;;6166954;23;20033;-79
2022/04/05 20:46:27;;;;;;;6.40;4.60;;;10.40;99.90;;;;;;6167236;23;20017;-79
2022/04/05 20:48:52;;;;;;;6.18;4.03;;;10.40;99.90;;;;;;6165266;23;20044;-80
2022/04/05 20:51:18;;;;;;;5.97;4.00;;;10.50;99.90;;;;;;6167250;23;20082;-80
2022/04/05 20:57:38;;;;;;;7.22;4.30;;;10.50;99.90;;;;;;6167083;23;20012;-82
2022/04/05 21:00:05;;;;;;;7.40;4.30;;;10.40;99.90;;;;;;6138582;23;20283;-78
2022/04/05 21:02:31;;;;;;;8.50;4.15;;;10.40;99.90;;;;;;6167910;23;20009;-79
2022/04/05 21:04:58;;;;;;;6.38;4.15;;;10.50;99.90;;;;;;6196280;23;20007;-79
2022/04/05 21:07:24;;;;;;;8.30;4.03;;;10.50;99.90;;;;;;6172706;23;20024;-80
2022/04/05 21:09:50;;;;;;;4.82;3.20;;;10.40;99.90;;;;;;6195359;23;20009;-78
2022/04/05 22:28:01;;;;;;;5.68;3.13;;;10.50;99.90;;;;;;6133912;22;20073;-80
2022/04/05 23:56:25;;;;;;;5.32;4.20;;;10.30;99.90;;;;;;6048123;23;20034;-78
